Time;durP1;ratioP1;P1;durP2;ratioP2;P2;SDS_P1;SDS_P2;PMS_P1;PMS_P2;Temp;Humidity;BMP_temperature;BMP_pressure;BME280_temperature;BME280_humidity;BME280_pressure;Samples;Min_cycle;Max_cycle;Signal;HPM_P1;HPM_P2
2021/12/28 00:00:12;;;;;;;39.70;22.65;;;5.00;99.90;;;;;;5036088;28;20493;-77
2021/12/28 00:02:38;;;;;;;41.35;21.13;;;5.00;99.90;;;;;;5037335;28;20045;-77
2021/12/28 00:05:05;;;;;;;40.10;21.85;;;5.10;99.90;;;;;;5044174;28;20052;-78
2021/12/28 00:07:31;;;;;;;40.08;22.75;;;5.10;99.90;;;;;;5055712;28;20506;-77
2021/12/28 00:09:56;;;;;;;42.58;23.58;;;5.10;99.90;;;;;;5056774;28;20060;-78
2021/12/28 00:12:23;;;;;;;46.20;22.70;;;5.10;99.90;;;;;;5074695;28;20050;-78
2021/12/28 00:15:04;;;;;;;35.83;23.20;;;5.10;99.90;;;;;;5055772;28;20115;-78
2021/12/28 00:20:14;;;;;;;40.20;20.85;;;5.20;99.90;;;;;;5056166;28;20078;-78
2021/12/28 00:22:40;;;;;;;38.25;22.13;;;5.20;99.90;;;;;;5056030;28;20052;-78
2021/12/28 00:25:06;;;;;;;44.13;23.50;;;5.20;99.90;;;;;;5074242;28;20079;-78
2021/12/28 00:27:32;;;;;;;48.70;25.58;;;5.20;99.90;;;;;;5073591;28;20052;-78
2021/12/28 00:29:58;;;;;;;40.05;23.35;;;5.20;99.90;;;;;;5074377;28;20465;-78
2021/12/28 00:32:24;;;;;;;50.30;26.40;;;5.20;99.90;;;;;;5056534;28;20052;-78
2021/12/28 00:34:50;;;;;;;53.60;27.35;;;5.20;99.90;;;;;;5072990;28;20434;-78
2021/12/28 00:37:17;;;;;;;60.72;27.58;;;5.20;99.90;;;;;;5056000;28;20051;-78
2021/12/28 00:39:42;;;;;;;48.85;25.77;;;5.20;99.90;;;;;;5074158;28;20094;-78
2021/12/28 00:42:09;;;;;;;61.45;29.35;;;5.20;99.90;;;;;;5055333;28;20491;-78
2021/12/28 00:44:35;;;;;;;59.67;28.27;;;5.30;99.90;;;;;;5073944;28;20049;-78
2021/12/28 00:47:01;;;;;;;58.47;29.05;;;5.30;99.90;;;;;;5074253;28;20048;-78
2021/12/28 00:49:26;;;;;;;71.30;30.80;;;5.30;99.90;;;;;;5072932;28;20101;-78
2021/12/28 00:51:54;;;;;;;65.07;30.52;;;5.30;99.90;;;;;;5056080;28;20044;-78
2021/12/28 00:54:20;;;;;;;97.38;36.28;;;5.30;99.90;;;;;;5073965;28;20396;-78
2021/12/28 00:56:45;;;;;;;60.53;29.63;;;5.30;99.90;;;;;;5073062;28;20036;-78
2021/12/28 00:59:12;;;;;;;85.30;34.35;;;5.30;99.90;;;;;;5055593;28;20048;-78
2021/12/28 01:01:39;;;;;;;96.78;37.80;;;5.30;99.90;;;;;;5055248;28;20052;-78
2021/12/28 01:04:05;;;;;;;110.28;38.67;;;5.40;99.90;;;;;;5055448;28;20384;-78
2021/12/28 01:06:30;;;;;;;84.95;33.10;;;5.40;99.90;;;;;;5073165;28;20040;-78
2021/12/28 01:08:56;;;;;;;100.70;39.35;;;5.40;99.90;;;;;;5055784;28;20051;-78
2021/12/28 01:11:22;;;;;;;103.72;39.45;;;5.40;99.90;;;;;;5055056;28;20044;-78
2021/12/28 01:13:48;;;;;;;117.57;41.20;;;5.50;99.90;;;;;;5055632;28;20101;-78
2021/12/28 01:16:14;;;;;;;131.80;42.20;;;5.50;99.90;;;;;;5073428;28;20040;-78
2021/12/28 01:18:46;;;;;;;176.68;47.92;;;5.50;99.90;;;;;;5054396;28;20056;-78
2021/12/28 01:21:12;;;;;;;102.60;39.28;;;5.50;99.90;;;;;;5072493;28;20134;-78
2021/12/28 01:23:37;;;;;;;114.10;40.78;;;5.50;99.90;;;;;;5072730;28;20508;-78
2021/12/28 01:26:03;;;;;;;202.55;52.75;;;5.50;99.90;;;;;;5073587;28;20079;-79
2021/12/28 01:28:29;;;;;;;140.90;44.13;;;5.50;99.90;;;;;;5055411;28;20045;-79
2021/12/28 01:30:55;;;;;;;110.65;44.05;;;5.60;99.90;;;;;;5072595;28;20051;-78
2021/12/28 01:33:20;;;;;;;185.90;52.22;;;5.60;99.90;;;;;;5073396;28;20454;-78
2021/12/28 01:35:46;;;;;;;200.90;53.75;;;5.70;99.90;;;;;;5055237;28;20530;-78
2021/12/28 01:38:12;;;;;;;323.70;64.57;;;5.70;99.90;;;;;;5050975;28;20161;-78
2021/12/28 01:40:41;;;;;;;179.02;49.53;;;5.70;99.90;;;;;;5035249;28;20048;-78
2021/12/28 01:43:11;;;;;;;274.17;61.75;;;5.70;99.90;;;;;;5035487;28;20044;-79
2021/12/28 01:45:52;;;;;;;259.15;55.75;;;5.80;99.90;;;;;;5034577;28;20044;-78
2021/12/28 01:48:22;;;;;;;264.67;58.25;;;5.70;99.90;;;;;;5052109;28;20045;-78
2021/12/28 01:50:50;;;;;;;193.70;50.17;;;5.80;99.90;;;;;;5066478;28;20052;-78
2021/12/28 01:53:16;;;;;;;250.57;58.60;;;5.80;99.90;;;;;;5072360;28;20049;-78
2021/12/28 01:55:46;;;;;;;254.95;58.00;;;5.80;99.90;;;;;;5055116;28;20565;-78
2021/12/28 01:58:11;;;;;;;320.73;64.43;;;5.80;99.90;;;;;;5073295;28;20450;-78
2021/12/28 02:00:38;;;;;;;282.85;61.13;;;5.80;99.90;;;;;;5072392;28;20108;-78
2021/12/28 02:03:12;;;;;;;185.93;51.17;;;5.90;99.90;;;;;;5073211;28;20048;-78
2021/12/28 02:05:39;;;;;;;323.80;60.83;;;5.90;99.90;;;;;;5054686;28;20036;-78
2021/12/28 02:08:06;;;;;;;208.07;55.30;;;5.90;99.90;;;;;;5072236;28;20052;-78
2021/12/28 02:10:33;;;;;;;293.52;58.67;;;5.90;99.90;;;;;;5073017;28;20059;-78
2021/12/28 02:12:59;;;;;;;464.63;72.43;;;5.90;99.90;;;;;;5075028;28;20037;-79
2021/12/28 02:15:25;;;;;;;534.67;80.78;;;6.00;99.90;;;;;;5076664;28;20400;-78
2021/12/28 02:17:50;;;;;;;441.60;73.03;;;6.00;99.90;;;;;;5058272;28;20051;-78
2021/12/28 02:20:19;;;;;;;363.33;64.93;;;6.00;99.90;;;;;;5057725;28;20436;-78
2021/12/28 02:22:47;;;;;;;416.33;68.47;;;6.00;99.90;;;;;;5058733;28;20060;-79
2021/12/28 02:25:15;;;;;;;540.33;80.63;;;6.00;99.90;;;;;;5076759;28;20056;-79
2021/12/28 02:27:41;;;;;;;295.85;58.97;;;6.00;99.90;;;;;;5057901;28;20123;-79
2021/12/28 02:30:10;;;;;;;328.80;63.33;;;6.10;99.90;;;;;;5076543;28;20492;-79
2021/12/28 02:32:39;;;;;;;357.95;65.75;;;6.10;99.90;;;;;;5076600;28;20087;-78
2021/12/28 02:35:13;;;;;;;369.98;65.00;;;6.10;99.90;;;;;;5075342;28;20491;-79
2021/12/28 02:37:39;;;;;;;239.68;56.63;;;6.20;99.90;;;;;;5076291;28;20174;-79
2021/12/28 02:40:08;;;;;;;363.17;66.40;;;6.20;99.90;;;;;;5076471;28;20535;-79
2021/12/28 02:42:34;;;;;;;405.98;70.25;;;6.20;99.90;;;;;;5075422;28;20052;-79
2021/12/28 02:45:09;;;;;;;254.05;55.92;;;6.20;99.90;;;;;;5076081;28;20127;-79
2021/12/28 02:47:43;;;;;;;355.05;64.57;;;6.30;99.90;;;;;;5058376;28;20052;-79
2021/12/28 02:50:31;;;;;;;332.60;64.03;;;6.30;99.90;;;;;;5057272;28;20032;-79
2021/12/28 02:52:58;;;;;;;443.85;69.05;;;6.30;99.90;;;;;;5075713;28;20056;-79
2021/12/28 02:55:28;;;;;;;299.58;57.67;;;6.30;99.90;;;;;;5057236;28;20083;-78
2021/12/28 02:58:06;;;;;;;492.83;77.85;;;6.40;99.90;;;;;;5076352;28;20098;-79
2021/12/28 03:00:44;;;;;;;294.48;56.42;;;6.30;99.90;;;;;;5076048;28;20511;-79
2021/12/28 03:03:15;;;;;;;407.40;67.68;;;6.30;99.90;;;;;;5057156;28;20075;-79
2021/12/28 03:05:43;;;;;;;222.45;53.05;;;6.30;99.90;;;;;;5057949;28;20052;-79
2021/12/28 03:08:10;;;;;;;626.78;83.80;;;6.30;99.90;;;;;;5057826;28;20052;-79
2021/12/28 03:10:37;;;;;;;415.05;66.50;;;6.40;99.90;;;;;;5074989;28;20045;-78
2021/12/28 03:13:04;;;;;;;336.23;62.97;;;6.40;99.90;;;;;;5075504;28;20036;-79
2021/12/28 03:15:30;;;;;;;329.75;63.53;;;6.40;99.90;;;;;;5075693;28;20131;-79
2021/12/28 03:17:56;;;;;;;404.90;70.75;;;6.40;99.90;;;;;;5074610;28;20482;-79
2021/12/28 03:20:22;;;;;;;242.93;55.40;;;6.50;99.90;;;;;;5057431;28;20124;-79
2021/12/28 03:22:48;;;;;;;373.45;67.10;;;6.50;99.90;;;;;;5075242;28;20500;-79
2021/12/28 03:25:15;;;;;;;315.92;62.97;;;6.50;99.90;;;;;;5074375;28;20051;-79
2021/12/28 03:27:42;;;;;;;643.53;84.60;;;6.50;99.90;;;;;;5075271;28;20080;-79
2021/12/28 03:30:11;;;;;;;316.15;62.10;;;6.50;99.90;;;;;;5075379;28;20057;-79
2021/12/28 03:32:37;;;;;;;233.18;54.13;;;6.50;99.90;;;;;;5075443;28;20045;-79
2021/12/28 03:35:04;;;;;;;335.23;63.85;;;6.60;99.90;;;;;;5074969;28;20040;-79
2021/12/28 03:37:31;;;;;;;228.43;53.83;;;6.60;99.90;;;;;;5056632;28;20131;-79
2021/12/28 03:39:57;;;;;;;307.30;60.42;;;6.60;99.90;;;;;;5075172;28;20052;-78
2021/12/28 03:42:23;;;;;;;282.17;57.80;;;6.60;99.90;;;;;;5057373;28;20052;-79
2021/12/28 03:44:49;;;;;;;207.63;50.47;;;6.60;99.90;;;;;;5074541;28;20165;-79
2021/12/28 03:47:15;;;;;;;288.48;56.45;;;6.60;99.90;;;;;;5074903;28;20063;-79
2021/12/28 03:49:41;;;;;;;223.50;53.45;;;6.60;99.90;;;;;;5074924;28;20036;-79
2021/12/28 03:52:07;;;;;;;190.75;50.42;;;6.60;99.90;;;;;;5056213;28;20056;-79
2021/12/28 03:54:34;;;;;;;246.18;55.00;;;6.60;99.90;;;;;;5075081;28;20055;-79
2021/12/28 03:57:01;;;;;;;180.43;50.67;;;6.60;99.90;;;;;;5075002;28;20052;-79
2021/12/28 03:59:27;;;;;;;403.20;66.63;;;6.60;99.90;;;;;;5074150;28;20133;-79
2021/12/28 04:01:53;;;;;;;222.60;53.85;;;6.60;99.90;;;;;;5074905;28;20044;-79
2021/12/28 04:04:19;;;;;;;262.63;55.88;;;6.60;99.90;;;;;;5074631;28;20545;-79
2021/12/28 04:06:44;;;;;;;230.80;54.00;;;6.60;99.90;;;;;;5055773;28;20067;-79
2021/12/28 04:09:12;;;;;;;189.25;47.30;;;6.60;99.90;;;;;;5057197;28;20044;-79
2021/12/28 04:11:39;;;;;;;249.15;56.30;;;6.60;99.90;;;;;;5074605;28;20036;-79
2021/12/28 04:14:07;;;;;;;473.05;74.65;;;6.60;99.90;;;;;;5055846;28;20059;-79
2021/12/28 04:16:34;;;;;;;320.92;61.25;;;6.60;99.90;;;;;;5074525;28;20040;-79
2021/12/28 04:19:03;;;;;;;274.10;57.13;;;6.60;99.90;;;;;;5056309;28;20418;-79
2021/12/28 04:21:30;;;;;;;289.10;57.72;;;6.60;99.90;;;;;;5073576;28;20454;-79
2021/12/28 04:23:56;;;;;;;222.68;50.75;;;6.60;99.90;;;;;;5056542;28;20048;-79
2021/12/28 04:26:22;;;;;;;209.90;51.55;;;6.60;99.90;;;;;;5056354;28;20102;-79
2021/12/28 04:28:48;;;;;;;218.73;50.50;;;6.60;99.90;;;;;;5073293;28;20045;-78
2021/12/28 04:31:14;;;;;;;208.90;51.13;;;6.60;99.90;;;;;;5074085;28;20036;-79
2021/12/28 04:33:40;;;;;;;222.73;50.67;;;6.60;99.90;;;;;;5055459;28;20468;-79
2021/12/28 04:36:12;;;;;;;180.93;46.22;;;6.70;99.90;;;;;;5055232;28;20052;-79
2021/12/28 04:38:38;;;;;;;165.90;44.60;;;6.70;99.90;;;;;;5056339;28;20052;-79
2021/12/28 04:41:05;;;;;;;173.05;47.53;;;6.70;99.90;;;;;;5073270;28;20086;-79
2021/12/28 04:43:31;;;;;;;243.10;50.97;;;6.60;99.90;;;;;;5074093;28;20051;-78
2021/12/28 04:45:58;;;;;;;207.07;48.92;;;6.60;99.90;;;;;;5056048;28;20059;-79
2021/12/28 04:48:24;;;;;;;215.23;48.03;;;6.60;99.90;;;;;;5073155;28;20057;-79
2021/12/28 04:50:50;;;;;;;214.25;47.60;;;6.60;99.90;;;;;;5073408;28;20036;-79
2021/12/28 04:53:15;;;;;;;187.20;45.40;;;6.60;99.90;;;;;;5055704;28;20048;-79
2021/12/28 04:55:45;;;;;;;179.38;45.75;;;6.60;99.90;;;;;;5073048;28;20059;-79
2021/12/28 04:58:11;;;;;;;166.43;42.30;;;6.60;99.90;;;;;;5055740;28;20048;-79
2021/12/28 05:00:38;;;;;;;158.25;41.33;;;6.60;99.90;;;;;;5073721;28;20052;-79
2021/12/28 05:03:05;;;;;;;144.80;40.92;;;6.60;99.90;;;;;;5055038;28;20504;-79
2021/12/28 05:05:32;;;;;;;154.32;42.97;;;6.60;99.90;;;;;;5073487;28;20476;-79
2021/12/28 05:07:58;;;;;;;163.85;42.67;;;6.50;99.90;;;;;;5073811;28;20087;-79
2021/12/28 05:10:24;;;;;;;192.82;46.13;;;6.50;99.90;;;;;;5072790;28;20072;-79
2021/12/28 05:12:50;;;;;;;169.85;43.15;;;6.50;99.90;;;;;;5073249;28;20072;-79
2021/12/28 05:15:17;;;;;;;146.30;43.15;;;6.50;99.90;;;;;;5073454;28;20071;-79
2021/12/28 05:17:43;;;;;;;164.40;41.22;;;6.50;99.90;;;;;;5072636;28;20044;-79
2021/12/28 05:20:09;;;;;;;144.98;42.40;;;6.50;99.90;;;;;;5073084;28;20041;-79
2021/12/28 05:22:35;;;;;;;140.30;41.55;;;6.50;99.90;;;;;;5055642;28;20048;-79
2021/12/28 05:25:02;;;;;;;192.02;46.78;;;6.50;99.90;;;;;;5054441;28;20048;-79
2021/12/28 05:27:27;;;;;;;149.70;43.10;;;6.50;99.90;;;;;;5055519;28;20095;-79
2021/12/28 05:29:53;;;;;;;143.48;42.25;;;6.50;99.90;;;;;;5054648;28;20131;-79
2021/12/28 05:32:19;;;;;;;133.23;41.20;;;6.50;99.90;;;;;;5055405;28;20377;-79
2021/12/28 05:34:45;;;;;;;143.77;43.60;;;6.50;99.90;;;;;;5054959;28;20044;-79
2021/12/28 05:37:11;;;;;;;136.18;42.03;;;6.50;99.90;;;;;;5072705;28;20040;-79
2021/12/28 05:39:36;;;;;;;130.95;42.30;;;6.50;99.90;;;;;;5055270;28;20369;-79
2021/12/28 05:42:03;;;;;;;129.18;41.63;;;6.50;99.90;;;;;;5073451;28;20145;-79
2021/12/28 05:44:29;;;;;;;131.02;41.53;;;6.50;99.90;;;;;;5054458;28;20049;-79
2021/12/28 05:46:55;;;;;;;125.55;40.00;;;6.40;99.90;;;;;;5074630;28;20033;-79
2021/12/28 05:49:24;;;;;;;125.35;41.30;;;6.50;99.90;;;;;;5059240;28;20499;-79
2021/12/28 05:51:51;;;;;;;140.52;39.45;;;6.50;99.90;;;;;;5076146;28;20048;-79
2021/12/28 05:54:18;;;;;;;129.07;41.13;;;6.40;99.90;;;;;;5059415;28;20052;-78
2021/12/28 05:56:44;;;;;;;112.22;38.40;;;6.40;99.90;;;;;;5059324;28;20060;-79
2021/12/28 05:59:10;;;;;;;161.05;45.38;;;6.40;99.90;;;;;;5058761;28;20052;-79
2021/12/28 06:01:36;;;;;;;101.85;34.30;;;6.40;99.90;;;;;;5059518;28;20052;-79
2021/12/28 06:04:03;;;;;;;98.10;34.40;;;6.40;99.90;;;;;;5059247;28;20040;-78
2021/12/28 06:06:29;;;;;;;97.70;34.03;;;6.40;99.90;;;;;;5054545;28;20505;-79
2021/12/28 06:08:55;;;;;;;102.30;32.90;;;6.40;99.90;;;;;;5056811;28;20084;-79
2021/12/28 06:11:21;;;;;;;98.85;33.85;;;6.40;99.90;;;;;;5039018;28;20385;-79
2021/12/28 06:13:47;;;;;;;100.70;32.25;;;6.40;99.90;;;;;;5065682;28;20044;-79
2021/12/28 06:16:15;;;;;;;86.35;31.10;;;6.40;99.90;;;;;;5058702;28;20080;-79
2021/12/28 06:18:41;;;;;;;99.57;33.95;;;6.50;99.90;;;;;;5058462;28;20067;-79
2021/12/28 06:21:07;;;;;;;78.25;29.98;;;6.50;99.90;;;;;;5075669;28;20135;-80
2021/12/28 06:23:33;;;;;;;95.15;31.75;;;6.50;99.90;;;;;;5059158;28;20444;-79
2021/12/28 06:25:59;;;;;;;89.20;31.48;;;6.50;99.90;;;;;;5058298;28;20058;-80
2021/12/28 06:28:25;;;;;;;99.05;31.63;;;6.50;99.90;;;;;;5076185;28;20041;-79
2021/12/28 06:30:53;;;;;;;76.55;28.35;;;6.50;99.90;;;;;;5076560;28;20055;-80
2021/12/28 06:33:22;;;;;;;88.43;31.02;;;6.50;99.90;;;;;;5075855;28;20071;-79
2021/12/28 06:35:49;;;;;;;90.25;31.90;;;6.50;99.90;;;;;;5055142;28;20477;-79
2021/12/28 06:38:16;;;;;;;87.03;31.80;;;6.40;99.90;;;;;;5038586;28;20124;-80
2021/12/28 06:40:43;;;;;;;92.80;30.90;;;6.40;99.90;;;;;;5037802;28;20468;-79
2021/12/28 06:43:09;;;;;;;66.68;26.63;;;6.30;99.90;;;;;;5056390;28;20049;-80
2021/12/28 06:45:35;;;;;;;77.07;28.48;;;6.30;99.90;;;;;;5056559;28;20079;-79
2021/12/28 06:48:01;;;;;;;78.85;27.95;;;6.30;99.90;;;;;;5037662;28;20041;-79
2021/12/28 06:50:26;;;;;;;75.40;27.05;;;6.30;99.90;;;;;;5048484;28;20479;-79
2021/12/28 06:52:52;;;;;;;66.03;27.17;;;6.30;99.90;;;;;;5076018;28;20123;-79
2021/12/28 06:55:18;;;;;;;78.20;27.27;;;6.30;99.90;;;;;;5057226;28;20048;-79
2021/12/28 06:57:44;;;;;;;80.90;27.05;;;6.30;99.90;;;;;;5075456;28;20052;-80
2021/12/28 07:00:14;;;;;;;78.75;27.17;;;6.20;99.90;;;;;;5075388;28;20052;-79
2021/12/28 07:02:39;;;;;;;72.65;25.52;;;6.20;99.90;;;;;;5057188;28;20044;-79
2021/12/28 07:05:07;;;;;;;66.68;23.60;;;6.30;99.90;;;;;;5075652;28;20041;-79
2021/12/28 07:07:33;;;;;;;63.97;23.95;;;6.30;99.90;;;;;;5075634;28;20059;-79
2021/12/28 07:09:59;;;;;;;75.75;24.25;;;6.30;99.90;;;;;;5075221;28;20052;-79
2021/12/28 07:12:25;;;;;;;64.45;23.33;;;6.20;99.90;;;;;;5075870;28;20086;-79
2021/12/28 07:14:51;;;;;;;70.65;24.85;;;6.20;99.90;;;;;;5054051;28;20175;-79
2021/12/28 07:17:16;;;;;;;66.65;22.33;;;6.20;99.90;;;;;;5036985;28;20049;-79
2021/12/28 07:19:42;;;;;;;64.70;23.88;;;6.20;99.90;;;;;;5059280;28;20049;-79
2021/12/28 07:22:08;;;;;;;55.85;23.00;;;6.20;99.90;;;;;;5076021;28;20046;-79
2021/12/28 07:24:34;;;;;;;63.35;21.90;;;6.20;99.90;;;;;;5074821;28;20051;-79
2021/12/28 07:27:00;;;;;;;64.65;22.98;;;6.20;99.90;;;;;;5057638;28;20048;-79
2021/12/28 07:29:25;;;;;;;59.25;20.15;;;6.20;99.90;;;;;;5056919;28;20052;-80
2021/12/28 07:31:51;;;;;;;64.78;20.95;;;6.20;99.90;;;;;;5057481;28;20055;-79
2021/12/28 07:34:17;;;;;;;71.55;22.02;;;6.20;99.90;;;;;;5057295;28;20110;-79
2021/12/28 07:36:43;;;;;;;59.25;21.02;;;6.20;99.90;;;;;;5074003;28;20048;-79
2021/12/28 07:39:09;;;;;;;53.33;18.80;;;6.20;99.90;;;;;;5075311;28;20044;-80
2021/12/28 07:41:36;;;;;;;61.92;20.05;;;6.20;99.90;;;;;;5057171;28;20072;-79
2021/12/28 07:44:03;;;;;;;56.38;19.58;;;6.20;99.90;;;;;;5056487;28;20036;-79
2021/12/28 07:46:29;;;;;;;56.15;21.25;;;6.20;99.90;;;;;;5075116;28;20044;-79
2021/12/28 07:48:55;;;;;;;61.78;20.45;;;6.20;99.90;;;;;;5057154;28;20040;-79
2021/12/28 07:51:21;;;;;;;56.15;19.20;;;6.20;99.90;;;;;;5056272;28;20053;-79
2021/12/28 07:53:46;;;;;;;58.20;18.85;;;6.20;99.90;;;;;;5075030;28;20377;-79
2021/12/28 07:56:12;;;;;;;46.13;18.20;;;6.20;99.90;;;;;;5074936;28;20045;-79
2021/12/28 07:58:38;;;;;;;57.28;18.50;;;6.20;99.90;;;;;;5073661;28;20102;-80
2021/12/28 08:01:04;;;;;;;47.40;19.38;;;6.20;99.90;;;;;;5057241;28;20135;-80
2021/12/28 08:03:30;;;;;;;59.83;19.38;;;6.20;99.90;;;;;;5074894;28;20502;-79
2021/12/28 08:05:56;;;;;;;54.60;18.05;;;6.20;99.90;;;;;;5073693;28;20155;-79
2021/12/28 08:08:21;;;;;;;60.28;19.13;;;6.20;99.90;;;;;;5056775;28;20123;-80
2021/12/28 08:10:47;;;;;;;47.90;17.20;;;6.20;99.90;;;;;;5056500;28;20056;-79
2021/12/28 08:13:13;;;;;;;55.55;17.63;;;6.30;99.90;;;;;;5074012;28;20063;-79
2021/12/28 08:15:39;;;;;;;56.83;17.80;;;6.30;99.90;;;;;;5056766;28;20040;-79
2021/12/28 08:18:07;;;;;;;58.22;17.17;;;6.30;99.90;;;;;;5074259;28;20041;-79
2021/12/28 08:20:33;;;;;;;43.30;15.65;;;6.30;99.90;;;;;;5073558;28;20068;-79
2021/12/28 08:23:00;;;;;;;51.85;17.05;;;6.30;99.90;;;;;;5074591;28;20076;-79
2021/12/28 08:25:26;;;;;;;47.65;16.40;;;6.40;99.90;;;;;;5074703;28;20040;-79
2021/12/28 08:27:52;;;;;;;49.08;16.02;;;6.40;99.90;;;;;;5055733;28;20044;-79
2021/12/28 08:30:19;;;;;;;57.90;18.85;;;6.40;99.90;;;;;;5056763;28;20052;-79
2021/12/28 08:32:46;;;;;;;42.10;14.73;;;6.40;99.90;;;;;;5073427;28;20059;-80
2021/12/28 08:35:13;;;;;;;47.25;15.10;;;6.40;99.90;;;;;;5073943;28;20555;-79
2021/12/28 08:37:40;;;;;;;59.80;17.45;;;6.40;99.90;;;;;;5074233;28;20119;-80
2021/12/28 08:40:07;;;;;;;53.97;15.68;;;6.40;99.90;;;;;;5055446;28;20044;-80
2021/12/28 08:42:33;;;;;;;46.22;15.80;;;6.50;99.90;;;;;;5074207;28;20113;-80
2021/12/28 08:44:59;;;;;;;54.83;16.08;;;6.50;99.90;;;;;;5052635;28;20492;-79
2021/12/28 08:47:27;;;;;;;44.17;16.45;;;6.50;99.90;;;;;;5053227;28;20037;-80
2021/12/28 08:49:58;;;;;;;54.67;16.77;;;6.60;99.90;;;;;;5059188;28;20131;-80
2021/12/28 08:52:25;;;;;;;45.20;15.40;;;6.60;99.90;;;;;;5074035;28;20049;-80
2021/12/28 08:54:51;;;;;;;43.70;15.68;;;6.70;99.90;;;;;;5055436;28;20377;-81
2021/12/28 08:57:18;;;;;;;50.45;15.43;;;6.70;99.90;;;;;;5073946;28;20044;-80
2021/12/28 08:59:45;;;;;;;54.47;14.30;;;6.70;99.90;;;;;;5073726;28;20037;-80
2021/12/28 09:02:11;;;;;;;42.78;13.40;;;6.80;99.90;;;;;;5055044;28;20048;-80
2021/12/28 09:04:39;;;;;;;48.08;13.25;;;6.80;99.90;;;;;;5055516;28;20040;-80
2021/12/28 09:07:05;;;;;;;49.72;14.20;;;6.80;99.90;;;;;;5055828;28;20055;-80
2021/12/28 09:09:31;;;;;;;42.17;13.80;;;6.80;99.90;;;;;;5055120;28;20048;-80
2021/12/28 09:11:57;;;;;;;44.80;13.52;;;6.80;99.90;;;;;;5055819;28;20052;-80
2021/12/28 09:14:23;;;;;;;44.75;12.73;;;6.90;99.90;;;;;;5055533;28;20056;-80
2021/12/28 09:16:48;;;;;;;38.78;13.63;;;6.90;99.90;;;;;;5072896;28;20166;-80
2021/12/28 09:19:14;;;;;;;47.30;14.52;;;7.00;99.90;;;;;;5072908;28;20044;-79
2021/12/28 09:21:40;;;;;;;34.22;12.52;;;6.90;99.90;;;;;;5072467;28;20085;-80
2021/12/28 09:24:06;;;;;;;40.10;13.13;;;7.00;99.90;;;;;;5072732;28;20036;-80
2021/12/28 09:26:34;;;;;;;39.10;13.60;;;7.00;99.90;;;;;;5055625;28;20109;-80
2021/12/28 09:29:00;;;;;;;40.17;12.82;;;7.00;99.90;;;;;;5054874;28;20053;-80
2021/12/28 09:31:26;;;;;;;36.13;13.55;;;7.00;99.90;;;;;;5055362;28;20131;-79
2021/12/28 09:33:52;;;;;;;40.30;13.85;;;7.10;99.90;;;;;;5055446;28;20110;-80
2021/12/28 09:36:18;;;;;;;45.47;14.60;;;7.10;99.90;;;;;;5072356;28;20133;-80
2021/12/28 09:38:45;;;;;;;41.00;14.90;;;7.10;99.90;;;;;;5073515;28;20045;-80
2021/12/28 09:41:11;;;;;;;45.90;15.98;;;7.10;99.90;;;;;;5073389;28;20056;-80
2021/12/28 09:43:39;;;;;;;42.28;14.07;;;7.20;99.90;;;;;;5072458;28;20056;-80
2021/12/28 09:46:05;;;;;;;52.22;15.85;;;7.20;99.90;;;;;;5055223;28;20078;-79
2021/12/28 09:48:32;;;;;;;43.70;15.32;;;7.30;99.90;;;;;;5055295;28;20044;-80
2021/12/28 09:50:59;;;;;;;43.58;14.35;;;7.20;99.90;;;;;;5054196;28;20048;-80
2021/12/28 09:53:24;;;;;;;31.95;13.38;;;7.30;99.90;;;;;;5073123;28;20048;-79
2021/12/28 09:55:50;;;;;;;51.80;15.00;;;7.20;99.90;;;;;;5073284;28;20089;-80
2021/12/28 09:58:16;;;;;;;51.63;15.32;;;7.30;99.90;;;;;;5072249;28;20047;-80
2021/12/28 10:00:42;;;;;;;41.28;14.45;;;7.20;99.90;;;;;;5072917;28;20553;-80
2021/12/28 10:03:08;;;;;;;50.95;14.52;;;7.30;99.90;;;;;;5072868;28;20059;-80
2021/12/28 10:05:34;;;;;;;37.85;14.90;;;7.20;99.90;;;;;;5072214;28;20380;-80
2021/12/28 10:08:03;;;;;;;46.35;15.90;;;7.20;99.90;;;;;;5055016;28;20044;-80
2021/12/28 10:10:32;;;;;;;38.40;12.80;;;7.30;99.90;;;;;;5055096;28;20078;-80
2021/12/28 10:13:01;;;;;;;48.97;15.23;;;7.30;99.90;;;;;;5072333;28;20433;-80
2021/12/28 10:15:30;;;;;;;35.42;13.25;;;7.30;99.90;;;;;;5054971;28;20049;-80
2021/12/28 10:17:58;;;;;;;46.05;14.13;;;7.30;99.90;;;;;;5038147;28;20052;-80
2021/12/28 10:20:30;;;;;;;29.42;14.57;;;7.30;99.90;;;;;;5053992;28;20074;-80
2021/12/28 10:22:59;;;;;;;43.95;14.50;;;7.30;99.90;;;;;;5073079;28;20046;-80
2021/12/28 10:25:31;;;;;;;45.15;14.70;;;7.30;99.90;;;;;;5072190;28;20101;-80
2021/12/28 10:28:00;;;;;;;41.10;14.13;;;7.30;99.90;;;;;;5073011;28;20059;-80
2021/12/28 10:30:35;;;;;;;45.20;13.57;;;7.40;99.90;;;;;;5072823;28;20046;-80
2021/12/28 10:33:09;;;;;;;39.75;13.52;;;7.40;99.90;;;;;;5073558;28;20051;-81
2021/12/28 10:35:46;;;;;;;38.95;14.50;;;7.40;99.90;;;;;;5075959;28;20036;-80
2021/12/28 10:38:18;;;;;;;34.60;14.40;;;7.40;99.90;;;;;;5076291;28;20048;-80
2021/12/28 10:40:51;;;;;;;30.98;13.25;;;7.40;99.90;;;;;;5058097;28;20040;-81
2021/12/28 10:43:23;;;;;;;34.78;13.35;;;7.40;99.90;;;;;;5058351;28;20389;-79
2021/12/28 10:45:52;;;;;;;31.25;13.23;;;7.50;99.90;;;;;;5058828;28;20102;-81
2021/12/28 10:48:23;;;;;;;42.17;14.65;;;7.50;99.90;;;;;;5057540;28;20132;-80
2021/12/28 10:51:02;;;;;;;33.42;14.27;;;7.50;99.90;;;;;;5058090;28;20106;-81
2021/12/28 10:56:34;;;;;;;32.33;14.60;;;7.50;99.90;;;;;;5076028;28;20131;-80
2021/12/28 10:59:01;;;;;;;37.97;14.68;;;7.60;99.90;;;;;;5076496;28;20056;-81
2021/12/28 11:01:32;;;;;;;32.80;13.85;;;7.60;99.90;;;;;;5074753;28;20392;-80
2021/12/28 11:04:05;;;;;;;31.95;13.25;;;7.60;99.90;;;;;;5058198;28;20055;-80
2021/12/28 11:06:36;;;;;;;30.80;13.60;;;7.70;99.90;;;;;;5075727;28;20071;-80
2021/12/28 11:09:06;;;;;;;28.92;13.60;;;7.70;99.90;;;;;;5075031;28;20078;-80
2021/12/28 11:11:34;;;;;;;21.85;12.65;;;7.70;99.90;;;;;;5076097;28;20037;-80
2021/12/28 11:14:06;;;;;;;29.33;13.13;;;7.80;99.90;;;;;;5057806;28;20053;-81
2021/12/28 11:16:33;;;;;;;28.20;12.98;;;7.80;99.90;;;;;;5057274;28;20048;-81
2021/12/28 11:19:03;;;;;;;24.67;13.05;;;7.80;99.90;;;;;;5057666;28;20057;-81
2021/12/28 11:21:33;;;;;;;26.48;12.77;;;7.80;99.90;;;;;;5056741;28;20052;-80
2021/12/28 11:24:04;;;;;;;30.65;13.13;;;7.90;99.90;;;;;;5057916;28;20044;-80
2021/12/28 11:26:32;;;;;;;29.48;12.38;;;7.90;99.90;;;;;;5075984;28;20096;-81
2021/12/28 11:29:03;;;;;;;23.90;13.20;;;7.90;99.90;;;;;;5074553;28;20055;-81
2021/12/28 11:31:41;;;;;;;20.23;10.88;;;7.90;99.90;;;;;;5075544;28;20051;-81
2021/12/28 11:34:18;;;;;;;23.83;10.07;;;7.90;99.90;;;;;;5075582;28;20053;-81
2021/12/28 11:36:48;;;;;;;22.42;10.98;;;7.90;99.90;;;;;;5074528;28;20044;-81
2021/12/28 11:39:17;;;;;;;31.73;10.18;;;7.90;99.90;;;;;;5057656;28;20059;-82
2021/12/28 11:41:44;;;;;;;17.83;9.65;;;7.90;99.90;;;;;;5075372;28;20404;-82
2021/12/28 11:44:11;;;;;;;22.48;10.77;;;7.90;99.90;;;;;;5055841;28;20059;-83
2021/12/28 11:46:37;;;;;;;19.25;10.05;;;7.90;99.90;;;;;;5057250;28;20056;-83
2021/12/28 11:49:06;;;;;;;23.65;10.57;;;7.90;99.90;;;;;;5057257;28;20064;-83
2021/12/28 11:51:32;;;;;;;17.42;9.73;;;8.00;99.90;;;;;;5053088;28;20147;-84
2021/12/28 11:54:03;;;;;;;18.95;9.95;;;8.00;99.90;;;;;;5037192;28;20048;-83
2021/12/28 11:56:33;;;;;;;17.73;9.13;;;8.00;99.90;;;;;;5037444;28;20045;-83
2021/12/28 11:59:09;;;;;;;18.40;9.50;;;8.00;99.90;;;;;;5054645;28;20056;-83
2021/12/28 12:01:37;;;;;;;19.00;10.27;;;8.00;99.90;;;;;;5037138;28;20053;-83
2021/12/28 12:04:04;;;;;;;12.20;7.80;;;8.10;99.90;;;;;;5036249;28;20063;-83
2021/12/28 12:07:04;;;;;;;18.58;10.07;;;8.10;99.90;;;;;;5072773;28;20119;-83
2021/12/28 12:09:32;;;;;;;12.13;8.85;;;8.10;99.90;;;;;;5074651;28;20037;-83
2021/12/28 12:12:13;;;;;;;14.63;8.07;;;8.10;99.90;;;;;;5073919;28;20063;-83
2021/12/28 12:14:51;;;;;;;11.85;7.68;;;8.10;99.90;;;;;;5074579;28;20055;-82
2021/12/28 12:17:28;;;;;;;16.17;9.20;;;8.10;99.90;;;;;;5074615;28;20041;-83
2021/12/28 12:20:09;;;;;;;14.90;8.90;;;8.10;99.90;;;;;;5073014;28;20049;-83
2021/12/28 12:22:38;;;;;;;10.15;6.68;;;8.10;99.90;;;;;;5056773;28;20174;-82
2021/12/28 12:25:19;;;;;;;10.80;8.30;;;8.10;99.90;;;;;;5039300;28;20056;-82
2021/12/28 12:27:57;;;;;;;12.75;7.85;;;8.20;99.90;;;;;;5056470;28;20109;-82
2021/12/28 12:30:27;;;;;;;15.20;10.02;;;8.20;99.90;;;;;;5056876;28;20056;-83
2021/12/28 12:32:57;;;;;;;17.73;9.35;;;8.20;99.90;;;;;;5055673;28;20516;-82
2021/12/28 12:35:40;;;;;;;17.92;9.52;;;8.20;99.90;;;;;;5056010;28;20048;-82
2021/12/28 12:38:12;;;;;;;23.83;11.48;;;8.30;99.90;;;;;;5056380;28;20060;-82
2021/12/28 12:40:59;;;;;;;21.13;10.38;;;8.30;99.90;;;;;;5055341;28;20045;-82